createdAt,value
2023-04-20T00:01:36.304Z,9.13
2023-04-20T00:04:04.527Z,12.30
2023-04-20T00:06:33.087Z,9.70
2023-04-20T00:09:00.953Z,9.47
2023-04-20T00:11:28.806Z,13.83
2023-04-20T00:13:56.616Z,12.97
2023-04-20T00:16:24.470Z,10.50
2023-04-20T00:18:53.751Z,8.03
2023-04-20T00:21:21.884Z,12.27
2023-04-20T00:23:49.784Z,9.20
2023-04-20T00:26:18.220Z,10.07
2023-04-20T00:28:46.413Z,12.20
2023-04-20T00:31:14.254Z,10.23
2023-04-20T00:33:42.118Z,7.80
2023-04-20T00:36:11.743Z,7.73
2023-04-20T00:38:39.532Z,11.13
2023-04-20T00:41:07.414Z,12.57
2023-04-20T00:43:35.271Z,10.50
2023-04-20T00:46:04.004Z,13.27
2023-04-20T00:48:31.896Z,11.60
2023-04-20T00:51:00.115Z,11.97
2023-04-20T00:53:29.399Z,12.30
2023-04-20T00:55:57.603Z,13.30
2023-04-20T00:58:25.491Z,9.53
2023-04-20T01:00:53.362Z,8.80
2023-04-20T01:03:22.190Z,11.53
2023-04-20T01:05:50.335Z,7.53
2023-04-20T01:08:18.158Z,12.93
2023-04-20T01:10:47.344Z,11.30
2023-04-20T01:13:15.166Z,9.70
2023-04-20T01:15:43.114Z,8.60
2023-04-20T01:18:11.764Z,9.20
2023-04-20T01:20:39.620Z,11.23
2023-04-20T01:23:08.811Z,11.40
2023-04-20T01:25:36.715Z,9.27
2023-04-20T01:28:04.821Z,10.07
2023-04-20T01:30:32.816Z,11.10
2023-04-20T01:33:00.660Z,13.90
2023-04-20T01:35:28.606Z,10.17
2023-04-20T01:37:56.434Z,9.07
2023-04-20T01:40:25.737Z,8.57
2023-04-20T01:42:53.537Z,11.00
2023-04-20T01:45:21.432Z,7.70
2023-04-20T01:47:49.401Z,9.93
2023-04-20T01:50:17.355Z,9.63
2023-04-20T01:52:45.175Z,9.50
2023-04-20T01:55:13.106Z,10.57
2023-04-20T01:57:42.321Z,12.00
2023-04-20T02:00:11.200Z,11.60
2023-04-20T02:02:39.269Z,9.57
2023-04-20T02:05:07.829Z,11.57
2023-04-20T02:07:35.680Z,14.87
2023-04-20T02:10:03.800Z,9.37
2023-04-20T02:12:31.710Z,9.47
2023-04-20T02:15:00.880Z,8.10
2023-04-20T02:17:28.989Z,12.20
2023-04-20T02:19:56.842Z,11.17
2023-04-20T02:22:24.655Z,11.40
2023-04-20T02:24:52.461Z,10.60
2023-04-20T02:27:20.260Z,12.50
2023-04-20T02:29:48.015Z,8.07
2023-04-20T02:32:17.261Z,9.17
2023-04-20T02:34:45.123Z,11.97
2023-04-20T02:37:12.989Z,10.17
2023-04-20T02:39:40.829Z,10.13
2023-04-20T02:42:08.938Z,9.87
2023-04-20T02:44:36.835Z,12.67
2023-04-20T02:47:04.888Z,13.07
2023-04-20T02:49:34.318Z,12.23
2023-04-20T02:52:02.346Z,11.20
2023-04-20T02:54:30.466Z,12.90
2023-04-20T02:56:58.820Z,9.67
2023-04-20T02:59:26.844Z,12.13
2023-04-20T03:01:54.840Z,11.77
2023-04-20T03:04:23.158Z,14.37
2023-04-20T03:06:53.761Z,10.20
2023-04-20T03:09:22.038Z,8.57
2023-04-20T03:11:50.587Z,9.90
2023-04-20T03:14:18.935Z,8.53
2023-04-20T03:16:47.543Z,11.57
2023-04-20T03:19:15.888Z,12.33
2023-04-20T03:21:45.267Z,10.40
2023-04-20T03:24:14.781Z,16.20
2023-04-20T03:26:43.004Z,11.20
2023-04-20T03:29:10.836Z,16.87
2023-04-20T03:31:38.794Z,15.03
2023-04-20T03:34:06.676Z,16.83
2023-04-20T03:36:34.510Z,13.43
2023-04-20T03:39:02.332Z,16.83
2023-04-20T03:41:31.998Z,12.97
2023-04-20T03:43:59.843Z,15.73
2023-04-20T03:46:27.925Z,16.50
2023-04-20T03:48:55.801Z,15.13
2023-04-20T03:51:23.561Z,16.13
2023-04-20T03:53:51.603Z,15.63
2023-04-20T03:56:19.398Z,14.23
2023-04-20T03:58:48.696Z,13.00
2023-04-20T04:01:16.766Z,14.83
2023-04-20T04:03:44.801Z,13.53
2023-04-20T04:06:12.862Z,13.90
2023-04-20T04:08:40.651Z,13.50
2023-04-20T04:11:08.450Z,14.60
2023-04-20T04:13:36.273Z,21.57
2023-04-20T04:16:06.276Z,16.47
2023-04-20T04:18:34.177Z,19.23
2023-04-20T04:21:02.142Z,14.33
2023-04-20T04:23:30.010Z,18.43
2023-04-20T04:25:58.715Z,14.60
2023-04-20T04:28:26.592Z,14.07
2023-04-20T04:30:54.406Z,17.07
2023-04-20T04:33:24.322Z,10.87
2023-04-20T04:35:53.558Z,17.77
2023-04-20T04:38:22.213Z,13.43
2023-04-20T04:40:50.175Z,13.97
2023-04-20T04:43:19.508Z,17.77
2023-04-20T04:45:47.692Z,19.23
2023-04-20T04:48:15.690Z,17.93
2023-04-20T04:50:44.994Z,15.43
2023-04-20T04:53:13.229Z,15.77
2023-04-20T04:55:41.336Z,10.77
2023-04-20T04:58:09.269Z,15.93
2023-04-20T05:00:37.336Z,17.17
2023-04-20T05:03:05.367Z,17.37
2023-04-20T05:05:33.440Z,13.00
2023-04-20T05:08:02.724Z,16.63
2023-04-20T05:10:30.729Z,15.60
2023-04-20T05:13:00.444Z,18.97
2023-04-20T05:15:28.658Z,16.63
2023-04-20T05:17:56.788Z,16.57
2023-04-20T05:20:24.911Z,15.43
2023-04-20T05:22:52.912Z,16.80
2023-04-20T05:25:22.409Z,15.83
2023-04-20T05:27:50.372Z,11.43
2023-04-20T05:30:21.389Z,20.97
2023-04-20T05:32:52.246Z,13.83
2023-04-20T05:35:21.351Z,14.37
2023-04-20T05:37:49.803Z,13.60
2023-04-20T05:40:17.819Z,16.33
2023-04-20T05:42:47.161Z,14.97
2023-04-20T05:45:15.126Z,19.97
2023-04-20T05:47:43.185Z,17.53
2023-04-20T05:50:11.700Z,15.57
2023-04-20T05:52:39.651Z,12.77
2023-04-20T05:55:08.168Z,14.23
2023-04-20T05:57:42.172Z,16.97
2023-04-20T06:00:13.334Z,20.40
2023-04-20T06:02:42.159Z,20.00
2023-04-20T06:05:11.700Z,16.67
2023-04-20T06:07:40.473Z,18.50
2023-04-20T06:10:09.351Z,18.23
2023-04-20T06:12:37.403Z,14.20
2023-04-20T06:15:06.734Z,16.73
2023-04-20T06:17:40.407Z,17.03
2023-04-20T06:20:09.763Z,16.97
2023-04-20T06:22:38.352Z,16.00
2023-04-20T06:25:07.153Z,16.83
2023-04-20T06:27:35.158Z,15.53
2023-04-20T06:30:04.082Z,22.07
2023-04-20T06:32:32.033Z,12.90
2023-04-20T06:35:01.414Z,19.80
2023-04-20T06:37:29.284Z,15.63
2023-04-20T06:39:57.202Z,19.53
2023-04-20T06:42:25.132Z,16.43
2023-04-20T06:44:53.097Z,15.57
2023-04-20T06:47:21.206Z,20.97
2023-04-20T06:49:49.299Z,23.70
2023-04-20T06:52:18.565Z,22.03
2023-04-20T06:54:46.483Z,15.23
2023-04-20T06:57:14.363Z,21.63
2023-04-20T06:59:42.318Z,16.47
2023-04-20T07:02:10.493Z,17.67
2023-04-20T07:04:38.589Z,15.60
2023-04-20T07:07:06.557Z,17.67
2023-04-20T07:09:35.928Z,17.40
2023-04-20T07:12:04.057Z,22.93
2023-04-20T07:14:31.942Z,18.13
2023-04-20T07:16:59.878Z,16.80
2023-04-20T07:19:27.920Z,19.87
2023-04-20T07:21:55.900Z,17.93
2023-04-20T07:24:23.816Z,19.50
2023-04-20T07:26:54.620Z,15.67
2023-04-20T07:29:22.457Z,16.23
2023-04-20T07:31:50.590Z,14.03
2023-04-20T07:34:18.746Z,14.83
2023-04-20T07:36:46.805Z,28.53
2023-04-20T07:39:16.012Z,15.70
2023-04-20T07:41:44.143Z,16.30
2023-04-20T07:44:14.360Z,11.57
2023-04-20T07:46:42.395Z,14.10
2023-04-20T07:49:10.604Z,10.90
2023-04-20T07:51:38.763Z,12.03
2023-04-20T07:54:07.012Z,13.23
2023-04-20T07:56:35.154Z,14.40
2023-04-20T07:59:03.114Z,16.17
2023-04-20T08:01:32.309Z,13.20
2023-04-20T08:04:00.290Z,10.57
2023-04-20T08:06:28.357Z,11.37
2023-04-20T08:08:56.234Z,13.03
2023-04-20T08:11:25.100Z,13.43
2023-04-20T08:13:53.146Z,13.57
2023-04-20T08:16:21.335Z,12.50
2023-04-20T08:18:50.698Z,11.97
2023-04-20T08:21:18.836Z,10.90
2023-04-20T08:23:46.742Z,16.77
2023-04-20T08:26:16.995Z,12.10
2023-04-20T08:28:45.509Z,12.93
2023-04-20T08:31:14.864Z,10.63
2023-04-20T08:33:42.790Z,18.77
2023-04-20T08:36:12.148Z,12.43
2023-04-20T08:38:40.135Z,13.20
2023-04-20T08:41:08.198Z,15.07
2023-04-20T08:43:36.956Z,15.70
2023-04-20T08:46:05.303Z,12.97
2023-04-20T08:48:36.738Z,14.67
2023-04-20T08:51:05.287Z,14.57
2023-04-20T08:53:34.884Z,14.60
2023-04-20T08:56:02.791Z,12.97
2023-04-20T08:58:32.442Z,13.30
2023-04-20T09:01:01.440Z,13.73
2023-04-20T09:03:34.768Z,13.53
2023-04-20T09:06:02.866Z,11.47
2023-04-20T09:08:39.736Z,14.37
2023-04-20T09:11:08.398Z,16.20
2023-04-20T09:13:36.368Z,14.07
2023-04-20T09:16:14.508Z,13.93
2023-04-20T09:18:53.239Z,15.03
2023-04-20T09:21:21.329Z,13.17
2023-04-20T09:24:00.157Z,18.27
2023-04-20T09:26:28.330Z,12.93
2023-04-20T09:28:56.367Z,12.43
2023-04-20T09:31:25.532Z,19.37
2023-04-20T09:34:04.270Z,10.97
2023-04-20T09:36:39.671Z,10.63
2023-04-20T09:39:11.126Z,10.90
2023-04-20T09:41:40.363Z,15.17
2023-04-20T09:44:09.127Z,13.47
2023-04-20T09:46:39.162Z,14.53
2023-04-20T09:49:08.513Z,12.97
2023-04-20T09:51:38.424Z,12.73
2023-04-20T09:54:09.254Z,12.30
2023-04-20T09:56:37.288Z,9.50
2023-04-20T09:59:05.378Z,10.27
2023-04-20T10:01:35.988Z,9.40
2023-04-20T10:04:07.731Z,9.60
2023-04-20T10:06:37.296Z,11.27
2023-04-20T10:09:06.925Z,11.70
2023-04-20T10:11:49.653Z,10.27
2023-04-20T10:14:24.104Z,11.43
2023-04-20T10:17:01.764Z,12.23
2023-04-20T10:19:39.262Z,11.67
2023-04-20T10:22:08.338Z,13.00
2023-04-20T10:24:38.162Z,9.63
2023-04-20T10:27:17.956Z,11.47
2023-04-20T10:29:45.983Z,11.87
2023-04-20T10:32:23.464Z,11.67
2023-04-20T10:35:02.484Z,10.60
2023-04-20T10:37:32.221Z,10.03
2023-04-20T10:40:00.578Z,12.40
2023-04-20T10:42:30.325Z,11.13
2023-04-20T10:44:58.210Z,15.33
2023-04-20T10:47:30.610Z,12.10
2023-04-20T10:50:07.906Z,12.40
2023-04-20T10:52:36.734Z,12.57
2023-04-20T10:55:08.431Z,13.80
2023-04-20T10:57:37.872Z,11.67
2023-04-20T11:00:16.885Z,11.30
2023-04-20T11:02:52.167Z,11.17
2023-04-20T11:05:21.397Z,12.20
2023-04-20T11:07:53.541Z,15.23
2023-04-20T11:10:22.116Z,13.13
2023-04-20T11:12:52.110Z,11.93
2023-04-20T11:15:20.229Z,10.53
2023-04-20T11:17:48.211Z,9.13
2023-04-20T11:20:18.549Z,12.00
2023-04-20T11:22:57.538Z,11.93
2023-04-20T11:25:25.630Z,13.27
2023-04-20T11:28:06.457Z,13.97
2023-04-20T11:30:39.946Z,15.67
2023-04-20T11:33:08.366Z,12.47
2023-04-20T11:35:38.144Z,9.83
2023-04-20T11:38:06.181Z,15.53
2023-04-20T11:40:34.436Z,8.50
2023-04-20T11:43:04.798Z,14.27
2023-04-20T11:45:36.240Z,10.43
2023-04-20T11:48:06.011Z,10.13
2023-04-20T11:50:34.111Z,13.13
2023-04-20T11:53:02.337Z,9.37
2023-04-20T11:55:30.299Z,10.60
2023-04-20T11:57:58.299Z,8.93
2023-04-20T12:00:27.642Z,11.13
2023-04-20T12:02:55.646Z,11.10
2023-04-20T12:05:23.778Z,11.80
2023-04-20T12:07:51.960Z,10.50
2023-04-20T12:10:19.954Z,15.33
2023-04-20T12:12:48.904Z,9.40
2023-04-20T12:15:17.021Z,9.77
2023-04-20T12:17:46.611Z,10.53
2023-04-20T12:20:15.341Z,9.43
2023-04-20T12:22:43.393Z,10.83
2023-04-20T12:25:11.403Z,10.90
2023-04-20T12:27:39.519Z,11.60
2023-04-20T12:30:09.360Z,9.67
2023-04-20T12:32:37.415Z,9.90
2023-04-20T12:35:08.440Z,10.63
2023-04-20T12:37:36.852Z,9.10
2023-04-20T12:40:06.437Z,10.50
2023-04-20T12:42:34.438Z,10.67
2023-04-20T12:45:02.295Z,7.87
2023-04-20T12:47:30.459Z,10.33
2023-04-20T12:49:58.503Z,11.77
2023-04-20T12:52:28.233Z,8.73
2023-04-20T12:54:56.217Z,9.73
2023-04-20T12:57:24.220Z,9.93
2023-04-20T12:59:52.219Z,8.97
2023-04-20T13:02:20.304Z,10.10
2023-04-20T13:04:48.335Z,11.10
2023-04-20T13:07:16.225Z,9.07
2023-04-20T13:09:45.597Z,7.43
2023-04-20T13:12:14.231Z,8.07
2023-04-20T13:14:42.143Z,7.30
2023-04-20T13:17:10.116Z,6.90
2023-04-20T13:19:38.090Z,11.57
2023-04-20T13:22:06.021Z,8.53
2023-04-20T13:24:33.956Z,9.27
2023-04-20T13:27:03.459Z,9.77
2023-04-20T13:29:31.887Z,9.73
2023-04-20T13:31:59.914Z,7.90
2023-04-20T13:34:27.993Z,11.33
2023-04-20T13:36:55.972Z,11.10
2023-04-20T13:39:23.914Z,7.57
2023-04-20T13:41:51.869Z,10.03
2023-04-20T13:44:21.933Z,10.13
2023-04-20T13:46:49.971Z,9.90
2023-04-20T13:49:17.906Z,9.10
2023-04-20T13:51:45.789Z,17.17
2023-04-20T13:54:13.705Z,8.93
2023-04-20T13:56:41.625Z,10.47
2023-04-20T13:59:09.709Z,9.17
2023-04-20T14:01:39.321Z,8.87
2023-04-20T14:04:07.441Z,8.13
2023-04-20T14:06:35.542Z,6.80
2023-04-20T14:09:03.759Z,6.60
2023-04-20T14:11:31.848Z,7.77
2023-04-20T14:14:00.074Z,9.47
2023-04-20T14:16:28.253Z,5.03
2023-04-20T14:18:57.544Z,8.43
2023-04-20T14:21:25.551Z,8.30
2023-04-20T14:23:55.062Z,10.70
2023-04-20T14:26:23.103Z,7.10
2023-04-20T14:28:52.548Z,6.80
2023-04-20T14:31:20.539Z,7.67
2023-04-20T14:33:48.474Z,5.80
2023-04-20T14:36:17.785Z,6.47
2023-04-20T14:38:45.713Z,8.90
2023-04-20T14:41:13.682Z,9.33
2023-04-20T14:43:41.672Z,6.27
2023-04-20T14:46:09.998Z,5.82
2023-04-20T14:48:38.177Z,7.13
2023-04-20T14:51:06.417Z,5.50
2023-04-20T14:53:35.724Z,7.13
2023-04-20T14:56:03.816Z,8.23
2023-04-20T14:58:31.725Z,9.30
2023-04-20T15:00:59.669Z,10.13
2023-04-20T15:03:28.018Z,8.47
2023-04-20T15:06:04.159Z,8.67
2023-04-20T15:08:32.146Z,6.67
2023-04-20T15:11:02.156Z,7.33
2023-04-20T15:13:30.110Z,6.67
2023-04-20T15:15:58.019Z,5.10
2023-04-20T15:18:25.937Z,7.03
2023-04-20T15:20:53.876Z,9.07
2023-04-20T15:23:21.915Z,8.07
2023-04-20T15:25:49.920Z,8.53
2023-04-20T15:28:19.226Z,6.10
2023-04-20T15:30:47.206Z,6.40
2023-04-20T15:33:15.338Z,7.20
2023-04-20T15:35:43.486Z,6.83
2023-04-20T15:38:11.701Z,7.27
2023-04-20T15:40:39.784Z,5.47
2023-04-20T15:43:07.770Z,5.13
2023-04-20T15:45:37.106Z,7.53
2023-04-20T15:50:34.142Z,5.53
2023-04-20T15:53:02.240Z,6.50
2023-04-20T15:55:34.295Z,6.73
2023-04-20T15:58:02.214Z,6.63
2023-04-20T16:00:30.179Z,7.90
2023-04-20T16:03:01.486Z,6.97
2023-04-20T16:05:29.836Z,5.15
2023-04-20T16:07:57.862Z,5.17
2023-04-20T16:10:27.421Z,6.10
2023-04-20T16:12:56.106Z,8.80
2023-04-20T16:15:24.709Z,6.67
2023-04-20T16:17:52.733Z,6.13
2023-04-20T16:20:22.355Z,6.63
2023-04-20T16:22:50.430Z,6.33
2023-04-20T16:25:23.040Z,6.10
2023-04-20T16:27:51.738Z,5.40
2023-04-20T16:30:20.182Z,5.70
2023-04-20T16:32:48.226Z,5.43
2023-04-20T16:35:16.356Z,8.13
2023-04-20T16:37:46.705Z,4.67
2023-04-20T16:40:15.195Z,5.60
2023-04-20T16:42:43.248Z,6.20
2023-04-20T16:45:11.314Z,7.53
2023-04-20T16:47:39.261Z,5.00
2023-04-20T16:50:09.258Z,4.43
2023-04-20T16:52:37.564Z,6.53
2023-04-20T16:55:08.126Z,5.23
2023-04-20T16:57:36.214Z,5.33
2023-04-20T17:00:06.231Z,4.50
2023-04-20T17:02:35.733Z,5.13
2023-04-20T17:05:03.905Z,5.60
2023-04-20T17:07:31.863Z,4.97
2023-04-20T17:09:59.938Z,4.00
2023-04-20T17:12:29.215Z,8.20
2023-04-20T17:14:57.249Z,6.03
2023-04-20T17:17:26.144Z,5.03
2023-04-20T17:19:54.137Z,5.97
2023-04-20T17:22:22.146Z,5.00
2023-04-20T17:24:50.080Z,5.97
2023-04-20T17:27:18.090Z,5.40
2023-04-20T17:32:19.341Z,6.33
2023-04-20T17:34:48.651Z,5.77
2023-04-20T17:37:16.835Z,4.77
2023-04-20T17:39:44.797Z,3.93
2023-04-20T17:42:13.737Z,6.87
2023-04-20T17:44:41.845Z,5.27
2023-04-20T17:47:09.969Z,5.97
2023-04-20T17:49:41.274Z,3.87
2023-04-20T17:52:13.084Z,4.13
2023-04-20T17:54:40.986Z,4.17
2023-04-20T17:57:09.396Z,4.40
2023-04-20T17:59:37.361Z,5.50
2023-04-20T18:02:05.442Z,4.07
2023-04-20T18:04:33.653Z,4.77
2023-04-20T18:07:03.165Z,8.67
2023-04-20T18:09:31.089Z,6.33
2023-04-20T18:11:59.341Z,8.90
2023-04-20T18:14:27.334Z,5.63
2023-04-20T18:16:56.368Z,4.30
2023-04-20T18:19:24.256Z,6.93
2023-04-20T18:21:52.256Z,4.90
2023-04-20T18:24:21.748Z,5.47
2023-04-20T18:26:49.572Z,3.90
2023-04-20T18:29:17.525Z,3.47
2023-04-20T18:31:46.616Z,5.97
2023-04-20T18:34:16.701Z,5.43
2023-04-20T18:36:45.720Z,4.13
2023-04-20T18:39:14.764Z,4.13
2023-04-20T18:41:44.170Z,7.30
2023-04-20T18:44:12.114Z,23.73
2023-04-20T18:46:41.999Z,12.30
2023-04-20T18:49:11.778Z,7.37
2023-04-20T18:51:39.701Z,4.30
2023-04-20T18:54:08.180Z,7.70
2023-04-20T18:56:36.908Z,4.57
2023-04-20T18:59:07.584Z,7.00
2023-04-20T19:01:40.259Z,5.10
2023-04-20T19:04:08.965Z,7.00
2023-04-20T19:06:37.139Z,4.87
2023-04-20T19:09:07.793Z,5.27
2023-04-20T19:11:37.372Z,7.53
2023-04-20T19:14:06.672Z,6.17
2023-04-20T19:16:35.040Z,4.67
2023-04-20T19:19:04.241Z,5.03
2023-04-20T19:21:33.266Z,4.60
2023-04-20T19:24:01.326Z,6.27
2023-04-20T19:26:29.285Z,5.73
2023-04-20T19:28:58.206Z,4.33
2023-04-20T19:31:32.165Z,4.80
2023-04-20T19:34:00.241Z,6.17
2023-04-20T19:36:28.657Z,5.33
2023-04-20T19:38:56.671Z,6.80
2023-04-20T19:41:26.085Z,4.97
2023-04-20T19:43:54.132Z,9.93
2023-04-20T19:46:22.055Z,7.93
2023-04-20T19:48:51.340Z,8.40
2023-04-20T19:51:20.036Z,4.90
2023-04-20T19:53:48.277Z,19.93
2023-04-20T19:56:16.134Z,7.37
2023-04-20T19:58:44.027Z,7.07
2023-04-20T20:01:12.194Z,4.60
2023-04-20T20:03:40.289Z,4.27
2023-04-20T20:06:10.047Z,6.97
2023-04-20T20:08:38.246Z,5.83
2023-04-20T20:11:06.191Z,6.20
2023-04-20T20:13:34.116Z,8.73
2023-04-20T20:16:02.986Z,5.50
2023-04-20T20:18:31.023Z,6.70
2023-04-20T20:20:59.047Z,5.40
2023-04-20T20:23:28.537Z,4.50
2023-04-20T20:25:56.708Z,7.30
2023-04-20T20:28:24.665Z,5.00
2023-04-20T20:30:52.704Z,9.00
2023-04-20T20:33:20.721Z,5.47
2023-04-20T20:35:48.660Z,6.13
2023-04-20T20:38:17.876Z,8.47
2023-04-20T20:40:50.450Z,5.50
2023-04-20T20:43:19.040Z,5.33
2023-04-20T20:45:47.640Z,4.40
2023-04-20T20:48:15.710Z,5.30
2023-04-20T20:50:43.777Z,7.80
2023-04-20T20:53:11.713Z,3.47
2023-04-20T20:55:39.781Z,5.03
2023-04-20T20:58:09.076Z,6.63
2023-04-20T21:00:37.000Z,6.40
2023-04-20T21:03:05.730Z,6.90
2023-04-20T21:05:35.565Z,9.80
2023-04-20T21:08:03.955Z,5.10
2023-04-20T21:10:31.898Z,6.83
2023-04-20T21:13:09.626Z,5.77
2023-04-20T21:15:38.932Z,5.53
2023-04-20T21:18:07.091Z,4.67
2023-04-20T21:20:35.750Z,6.63
2023-04-20T21:23:03.639Z,7.03
2023-04-20T21:25:31.548Z,9.13
2023-04-20T21:27:59.414Z,5.13
2023-04-20T21:30:28.281Z,6.00
2023-04-20T21:32:57.663Z,4.77
2023-04-20T21:35:25.768Z,5.80
2023-04-20T21:37:54.072Z,7.43
2023-04-20T21:40:24.043Z,4.97
2023-04-20T21:42:52.188Z,4.63
2023-04-20T21:45:20.201Z,6.60
2023-04-20T21:47:48.119Z,7.83
2023-04-20T21:50:18.377Z,6.20
2023-04-20T21:52:46.298Z,4.03
2023-04-20T21:55:14.189Z,4.60
2023-04-20T21:57:42.404Z,6.80
2023-04-20T22:00:11.473Z,4.90
2023-04-20T22:02:39.525Z,6.67
2023-04-20T22:05:09.864Z,5.57
2023-04-20T22:07:39.188Z,4.43
2023-04-20T22:10:08.355Z,5.23
2023-04-20T22:12:40.328Z,11.83
2023-04-20T22:15:13.520Z,5.40
2023-04-20T22:17:42.201Z,5.63
2023-04-20T22:20:12.120Z,4.77
2023-04-20T22:22:41.980Z,7.03
2023-04-20T22:25:10.823Z,7.40
2023-04-20T22:27:39.095Z,5.30
2023-04-20T22:30:09.612Z,4.63
2023-04-20T22:32:39.160Z,6.80
2023-04-20T22:35:07.805Z,6.47
2023-04-20T22:37:36.137Z,6.40
2023-04-20T22:40:07.681Z,5.53
2023-04-20T22:42:36.045Z,4.13
2023-04-20T22:45:04.079Z,3.57
2023-04-20T22:47:32.471Z,5.23
2023-04-20T22:50:00.442Z,9.27
2023-04-20T22:52:28.302Z,4.77
2023-04-20T22:54:56.400Z,5.87
2023-04-20T22:57:25.748Z,4.77
2023-04-20T22:59:53.624Z,3.83
2023-04-20T23:02:21.613Z,4.13
2023-04-20T23:04:49.545Z,7.27
2023-04-20T23:07:19.558Z,6.33
2023-04-20T23:09:48.481Z,4.53
2023-04-20T23:12:16.554Z,7.13
2023-04-20T23:14:46.043Z,5.70
2023-04-20T23:17:14.358Z,5.23
2023-04-20T23:19:43.148Z,7.93
2023-04-20T23:22:11.054Z,6.27
2023-04-20T23:24:39.147Z,5.43
2023-04-20T23:27:07.006Z,7.90
2023-04-20T23:36:05.278Z,9.77
2023-04-20T23:38:33.162Z,4.87
2023-04-20T23:41:01.162Z,5.37
2023-04-20T23:43:29.082Z,4.87
2023-04-20T23:45:56.999Z,4.80
2023-04-20T23:48:25.018Z,4.43
2023-04-20T23:50:52.849Z,4.77
2023-04-20T23:53:22.106Z,6.03
2023-04-20T23:55:52.076Z,6.73
2023-04-20T23:58:20.263Z,4.87
